sensor_id;sensor_type;location;lat;lon;timestamp;pressure;altitude;pressure_sealevel;temperature;humidity
56042;BME280;48756;41.374;2.066;2024-03-07T00:01:35;101356.31;;;11.69;75.26
56042;BME280;48756;41.374;2.066;2024-03-07T00:04:00;101358.16;;;11.39;75.55
56042;BME280;48756;41.374;2.066;2024-03-07T00:06:26;101353.00;;;11.05;77.08
56042;BME280;48756;41.374;2.066;2024-03-07T00:08:51;101359.97;;;11.07;77.98
56042;BME280;48756;41.374;2.066;2024-03-07T00:11:16;101352.16;;;11.03;78.92
56042;BME280;48756;41.374;2.066;2024-03-07T00:13:42;101349.47;;;11.31;76.34
56042;BME280;48756;41.374;2.066;2024-03-07T00:16:08;101346.06;;;11.12;77.29
56042;BME280;48756;41.374;2.066;2024-03-07T00:18:35;101338.16;;;11.30;76.12
56042;BME280;48756;41.374;2.066;2024-03-07T00:21:01;101336.44;;;11.37;76.59
56042;BME280;48756;41.374;2.066;2024-03-07T00:23:26;101344.25;;;11.35;76.62
56042;BME280;48756;41.374;2.066;2024-03-07T00:25:52;101339.03;;;11.37;76.84
56042;BME280;48756;41.374;2.066;2024-03-07T00:28:17;101336.44;;;11.28;77.46
56042;BME280;48756;41.374;2.066;2024-03-07T00:30:43;101332.97;;;11.26;78.51
56042;BME280;48756;41.374;2.066;2024-03-07T00:33:10;101330.34;;;11.37;78.44
56042;BME280;48756;41.374;2.066;2024-03-07T00:35:36;101324.31;;;11.19;78.59
56042;BME280;48756;41.374;2.066;2024-03-07T00:38:01;101332.97;;;11.35;78.82
56042;BME280;48756;41.374;2.066;2024-03-07T00:40:26;101322.53;;;11.24;79.55
56042;BME280;48756;41.374;2.066;2024-03-07T00:42:52;101327.69;;;11.44;78.74
56042;BME280;48756;41.374;2.066;2024-03-07T00:45:18;101320.75;;;11.40;78.90
56042;BME280;48756;41.374;2.066;2024-03-07T00:47:43;101318.19;;;11.28;79.10
56042;BME280;48756;41.374;2.066;2024-03-07T00:50:08;101319.06;;;11.22;77.65
56042;BME280;48756;41.374;2.066;2024-03-07T00:52:34;101308.66;;;11.15;80.62
56042;BME280;48756;41.374;2.066;2024-03-07T00:55:01;101309.59;;;10.91;81.56
56042;BME280;48756;41.374;2.066;2024-03-07T00:57:27;101313.00;;;11.19;81.29
56042;BME280;48756;41.374;2.066;2024-03-07T00:59:52;101308.66;;;11.15;81.24
56042;BME280;48756;41.374;2.066;2024-03-07T01:02:17;101305.19;;;11.08;81.60
56042;BME280;48756;41.374;2.066;2024-03-07T01:04:43;101308.66;;;11.15;81.56
56042;BME280;48756;41.374;2.066;2024-03-07T01:07:08;101306.94;;;11.14;81.89
56042;BME280;48756;41.374;2.066;2024-03-07T01:09:34;101306.00;;;11.25;81.80
56042;BME280;48756;41.374;2.066;2024-03-07T01:12:01;101300.78;;;11.34;81.00
56042;BME280;48756;41.374;2.066;2024-03-07T01:14:31;101305.25;;;10.87;80.23
56042;BME280;48756;41.374;2.066;2024-03-07T01:16:57;101293.97;;;10.62;79.12
56042;BME280;48756;41.374;2.066;2024-03-07T01:19:22;101306.13;;;10.38;77.94
56042;BME280;48756;41.374;2.066;2024-03-07T01:21:48;101302.56;;;9.95;79.48
56042;BME280;48756;41.374;2.066;2024-03-07T01:24:13;101291.31;;;9.96;80.11
56042;BME280;48756;41.374;2.066;2024-03-07T01:26:43;101295.72;;;10.22;79.76
56042;BME280;48756;41.374;2.066;2024-03-07T01:29:10;101293.97;;;10.31;77.16
56042;BME280;48756;41.374;2.066;2024-03-07T01:31:36;101280.09;;;10.29;76.81
56042;BME280;48756;41.374;2.066;2024-03-07T01:34:01;101280.97;;;10.48;76.30
56042;BME280;48756;41.374;2.066;2024-03-07T01:36:26;101284.44;;;10.46;75.62
56042;BME280;48756;41.374;2.066;2024-03-07T01:38:52;101283.53;;;10.37;74.66
56042;BME280;48756;41.374;2.066;2024-03-07T01:41:17;101277.47;;;10.60;76.26
56042;BME280;48756;41.374;2.066;2024-03-07T01:43:43;101281.81;;;10.52;76.22
56042;BME280;48756;41.374;2.066;2024-03-07T01:46:08;101270.50;;;10.40;76.11
56042;BME280;48756;41.374;2.066;2024-03-07T01:48:35;101267.94;;;10.42;76.94
56042;BME280;48756;41.374;2.066;2024-03-07T01:51:01;101254.03;;;10.28;76.51
56042;BME280;48756;41.374;2.066;2024-03-07T01:53:28;101248.81;;;10.35;77.53
56042;BME280;48756;41.374;2.066;2024-03-07T01:55:55;101244.50;;;10.21;78.55
56042;BME280;48756;41.374;2.066;2024-03-07T01:58:21;101247.09;;;10.25;79.11
56042;BME280;48756;41.374;2.066;2024-03-07T02:00:47;101241.00;;;10.20;78.40
56042;BME280;48756;41.374;2.066;2024-03-07T02:03:14;101240.13;;;10.33;78.84
56042;BME280;48756;41.374;2.066;2024-03-07T02:05:40;101236.69;;;10.25;79.55
56042;BME280;48756;41.374;2.066;2024-03-07T02:08:06;101227.97;;;10.49;79.17
56042;BME280;48756;41.374;2.066;2024-03-07T02:10:31;101226.25;;;10.50;79.37
56042;BME280;48756;41.374;2.066;2024-03-07T02:12:59;101220.13;;;10.11;80.80
56042;BME280;48756;41.374;2.066;2024-03-07T02:15:26;101221.91;;;10.20;80.11
56042;BME280;48756;41.374;2.066;2024-03-07T02:17:51;101216.69;;;10.35;80.13
56042;BME280;48756;41.374;2.066;2024-03-07T02:20:16;101220.16;;;10.35;80.56
56042;BME280;48756;41.374;2.066;2024-03-07T02:22:42;101209.75;;;10.37;81.92
56042;BME280;48756;41.374;2.066;2024-03-07T02:25:07;101207.97;;;10.14;81.83
56042;BME280;48756;41.374;2.066;2024-03-07T02:27:35;101208.00;;;10.02;82.94
56042;BME280;48756;41.374;2.066;2024-03-07T02:30:00;101200.19;;;9.98;83.61
56042;BME280;48756;41.374;2.066;2024-03-07T02:32:28;101191.47;;;9.94;83.36
56042;BME280;48756;41.374;2.066;2024-03-07T02:34:54;101189.75;;;9.87;82.77
56042;BME280;48756;41.374;2.066;2024-03-07T02:37:19;101175.00;;;10.35;82.32
56042;BME280;48756;41.374;2.066;2024-03-07T02:39:44;101175.91;;;10.25;83.06
56042;BME280;48756;41.374;2.066;2024-03-07T02:42:10;101174.16;;;10.25;82.79
56042;BME280;48756;41.374;2.066;2024-03-07T02:44:36;101167.19;;;10.18;84.24
56042;BME280;48756;41.374;2.066;2024-03-07T02:47:03;101163.72;;;10.34;84.39
56042;BME280;48756;41.374;2.066;2024-03-07T02:49:29;101161.97;;;10.49;83.20
56042;BME280;48756;41.374;2.066;2024-03-07T02:51:54;101157.59;;;10.54;82.68
56042;BME280;48756;41.374;2.066;2024-03-07T02:54:20;101158.47;;;10.56;82.86
56042;BME280;48756;41.374;2.066;2024-03-07T02:56:45;101154.97;;;10.70;83.64
56042;BME280;48756;41.374;2.066;2024-03-07T02:59:13;101149.78;;;10.60;83.92
56042;BME280;48756;41.374;2.066;2024-03-07T03:01:41;101139.41;;;10.45;83.71
56042;BME280;48756;41.374;2.066;2024-03-07T03:04:06;101141.16;;;10.29;85.95
56042;BME280;48756;41.374;2.066;2024-03-07T03:06:31;101137.66;;;10.39;85.33
56042;BME280;48756;41.374;2.066;2024-03-07T03:08:57;101122.06;;;9.95;86.27
56042;BME280;48756;41.374;2.066;2024-03-07T03:11:23;101125.56;;;9.81;86.23
56042;BME280;48756;41.374;2.066;2024-03-07T03:13:50;101116.03;;;9.96;87.20
56042;BME280;48756;41.374;2.066;2024-03-07T03:16:16;101115.13;;;9.92;86.42
56042;BME280;48756;41.374;2.066;2024-03-07T03:18:41;101114.22;;;10.16;85.03
56042;BME280;48756;41.374;2.066;2024-03-07T03:21:07;101117.72;;;10.15;85.43
56042;BME280;48756;41.374;2.066;2024-03-07T03:23:32;101103.00;;;9.99;84.31
56042;BME280;48756;41.374;2.066;2024-03-07T03:25:58;101107.31;;;9.89;82.59
56042;BME280;48756;41.374;2.066;2024-03-07T03:28:24;101110.81;;;9.59;84.96
56042;BME280;48756;41.374;2.066;2024-03-07T03:30:50;101109.06;;;9.70;84.69
56042;BME280;48756;41.374;2.066;2024-03-07T03:33:16;101107.31;;;9.68;83.58
56042;BME280;48756;41.374;2.066;2024-03-07T03:35:42;101108.19;;;9.94;83.94
56042;BME280;48756;41.374;2.066;2024-03-07T03:38:08;101107.28;;;10.18;83.38
56042;BME280;48756;41.374;2.066;2024-03-07T03:40:33;101102.09;;;10.33;81.79
56042;BME280;48756;41.374;2.066;2024-03-07T03:42:59;101101.25;;;10.21;80.32
56042;BME280;48756;41.374;2.066;2024-03-07T03:45:25;101093.47;;;9.98;81.35
56042;BME280;48756;41.374;2.066;2024-03-07T03:47:50;101084.75;;;10.02;81.83
56042;BME280;48756;41.374;2.066;2024-03-07T03:50:16;101082.16;;;9.94;82.38
56042;BME280;48756;41.374;2.066;2024-03-07T03:52:42;101088.19;;;10.14;82.67
56042;BME280;48756;41.374;2.066;2024-03-07T03:55:08;101092.53;;;10.17;81.09
56042;BME280;48756;41.374;2.066;2024-03-07T03:57:37;101087.34;;;10.08;80.72
56042;BME280;48756;41.374;2.066;2024-03-07T04:00:04;101083.00;;;10.30;80.64
56042;BME280;48756;41.374;2.066;2024-03-07T04:02:35;101076.03;;;10.30;80.01
56042;BME280;48756;41.374;2.066;2024-03-07T04:05:02;101079.56;;;10.22;79.80
56042;BME280;48756;41.374;2.066;2024-03-07T04:07:28;101083.00;;;10.30;81.10
56042;BME280;48756;41.374;2.066;2024-03-07T04:09:54;101080.44;;;9.79;83.73
56042;BME280;48756;41.374;2.066;2024-03-07T04:12:19;101083.03;;;9.86;82.36
56042;BME280;48756;41.374;2.066;2024-03-07T04:14:45;101082.19;;;9.76;83.24
56042;BME280;48756;41.374;2.066;2024-03-07T04:17:10;101079.56;;;9.67;83.84
56042;BME280;48756;41.374;2.066;2024-03-07T04:19:41;101074.38;;;9.59;84.55
56042;BME280;48756;41.374;2.066;2024-03-07T04:22:07;101072.66;;;9.55;85.89
56042;BME280;48756;41.374;2.066;2024-03-07T04:24:33;101076.13;;;9.74;86.92
56042;BME280;48756;41.374;2.066;2024-03-07T04:27:02;101077.81;;;10.01;85.31
56042;BME280;48756;41.374;2.066;2024-03-07T04:29:32;101076.97;;;9.96;84.00
56042;BME280;48756;41.374;2.066;2024-03-07T04:31:58;101076.09;;;9.97;86.22
56042;BME280;48756;41.374;2.066;2024-03-07T04:34:24;101076.09;;;9.68;85.62
56042;BME280;48756;41.374;2.066;2024-03-07T04:36:49;101070.91;;;9.75;85.68
56042;BME280;48756;41.374;2.066;2024-03-07T04:39:15;101071.78;;;9.64;85.94
56042;BME280;48756;41.374;2.066;2024-03-07T04:41:58;101070.00;;;10.05;84.65
56042;BME280;48756;41.374;2.066;2024-03-07T04:44:25;101070.84;;;10.15;82.87
56042;BME280;48756;41.374;2.066;2024-03-07T04:46:51;101069.13;;;10.06;82.60
56042;BME280;48756;41.374;2.066;2024-03-07T04:49:21;101052.66;;;9.94;82.74
56042;BME280;48756;41.374;2.066;2024-03-07T04:51:46;101060.50;;;9.68;85.48
56042;BME280;48756;41.374;2.066;2024-03-07T04:54:11;101057.03;;;9.67;84.93
56042;BME280;48756;41.374;2.066;2024-03-07T04:56:37;101049.22;;;9.81;86.30
56042;BME280;48756;41.374;2.066;2024-03-07T04:59:02;101047.44;;;9.95;83.32
56042;BME280;48756;41.374;2.066;2024-03-07T05:01:27;101050.06;;;10.01;84.78
56042;BME280;48756;41.374;2.066;2024-03-07T05:03:53;101033.59;;;9.86;85.29
56042;BME280;48756;41.374;2.066;2024-03-07T05:06:20;101040.50;;;9.90;84.87
56042;BME280;48756;41.374;2.066;2024-03-07T05:08:48;101031.03;;;9.55;86.29
56042;BME280;48756;41.374;2.066;2024-03-07T05:11:13;101023.22;;;9.64;87.03
56042;BME280;48756;41.374;2.066;2024-03-07T05:13:39;101030.97;;;9.89;86.70
56042;BME280;48756;41.374;2.066;2024-03-07T05:16:07;101027.50;;;10.00;83.44
56042;BME280;48756;41.374;2.066;2024-03-07T05:18:32;101033.56;;;10.04;84.15
56042;BME280;48756;41.374;2.066;2024-03-07T05:20:58;101027.44;;;10.19;82.88
56042;BME280;48756;41.374;2.066;2024-03-07T05:23:43;101033.50;;;10.31;81.06
56042;BME280;48756;41.374;2.066;2024-03-07T05:26:08;101030.03;;;10.31;80.30
56042;BME280;48756;41.374;2.066;2024-03-07T05:28:34;101032.63;;;10.41;80.16
56042;BME280;48756;41.374;2.066;2024-03-07T05:30:59;101035.28;;;10.09;80.35
56042;BME280;48756;41.374;2.066;2024-03-07T05:33:24;101034.44;;;10.03;80.80
56042;BME280;48756;41.374;2.066;2024-03-07T05:35:50;101030.09;;;9.88;83.05
56042;BME280;48756;41.374;2.066;2024-03-07T05:38:15;101031.84;;;9.86;84.49
56042;BME280;48756;41.374;2.066;2024-03-07T05:40:43;101032.72;;;9.70;83.42
56042;BME280;48756;41.374;2.066;2024-03-07T05:43:11;101032.75;;;9.80;85.59
56042;BME280;48756;41.374;2.066;2024-03-07T05:45:38;101012.72;;;9.95;85.44
56042;BME280;48756;41.374;2.066;2024-03-07T05:48:14;101016.28;;;9.60;86.54
56042;BME280;48756;41.374;2.066;2024-03-07T05:50:41;101024.06;;;9.69;86.57
56042;BME280;48756;41.374;2.066;2024-03-07T05:53:06;101026.66;;;9.68;87.20
56042;BME280;48756;41.374;2.066;2024-03-07T05:55:33;101029.25;;;9.81;87.10
56042;BME280;48756;41.374;2.066;2024-03-07T05:57:58;101043.16;;;9.79;84.52
56042;BME280;48756;41.374;2.066;2024-03-07T06:00:23;101030.13;;;9.65;85.14
56042;BME280;48756;41.374;2.066;2024-03-07T06:02:52;101036.22;;;9.67;84.74
56042;BME280;48756;41.374;2.066;2024-03-07T06:05:18;101033.63;;;9.54;85.65
56042;BME280;48756;41.374;2.066;2024-03-07T06:07:44;101035.38;;;9.58;85.12
56042;BME280;48756;41.374;2.066;2024-03-07T06:10:11;101032.75;;;9.80;84.84
56042;BME280;48756;41.374;2.066;2024-03-07T06:12:36;101033.59;;;9.81;83.86
56042;BME280;48756;41.374;2.066;2024-03-07T06:15:02;101032.72;;;9.96;82.52
56042;BME280;48756;41.374;2.066;2024-03-07T06:17:31;101032.72;;;9.90;82.14
56042;BME280;48756;41.374;2.066;2024-03-07T06:19:56;101040.50;;;10.00;82.10
56042;BME280;48756;41.374;2.066;2024-03-07T06:22:21;101043.06;;;10.11;81.21
56042;BME280;48756;41.374;2.066;2024-03-07T06:24:47;101050.91;;;10.02;81.24
56042;BME280;48756;41.374;2.066;2024-03-07T06:27:13;101055.25;;;9.92;82.35
56042;BME280;48756;41.374;2.066;2024-03-07T06:29:51;101054.38;;;10.21;80.88
56042;BME280;48756;41.374;2.066;2024-03-07T06:32:18;101048.34;;;9.79;79.76
56042;BME280;48756;41.374;2.066;2024-03-07T06:34:43;101057.88;;;9.83;81.01
56042;BME280;48756;41.374;2.066;2024-03-07T06:37:09;101063.97;;;9.96;80.21
56042;BME280;48756;41.374;2.066;2024-03-07T06:39:34;101056.09;;;10.23;78.56
56042;BME280;48756;41.374;2.066;2024-03-07T06:42:00;101059.50;;;10.40;77.35
56042;BME280;48756;41.374;2.066;2024-03-07T06:44:25;101058.72;;;10.02;78.07
56042;BME280;48756;41.374;2.066;2024-03-07T06:46:51;101068.28;;;9.92;81.02
56042;BME280;48756;41.374;2.066;2024-03-07T06:49:17;101073.50;;;9.83;79.82
56042;BME280;48756;41.374;2.066;2024-03-07T06:51:42;101066.56;;;9.79;81.14
56042;BME280;48756;41.374;2.066;2024-03-07T06:54:09;101070.03;;;9.79;80.97
56042;BME280;48756;41.374;2.066;2024-03-07T06:56:35;101063.06;;;9.94;79.05
56042;BME280;48756;41.374;2.066;2024-03-07T06:59:01;101072.59;;;10.04;78.41
56042;BME280;48756;41.374;2.066;2024-03-07T07:01:29;101073.47;;;10.07;78.11
56042;BME280;48756;41.374;2.066;2024-03-07T07:03:55;101082.03;;;10.55;77.79
56042;BME280;48756;41.374;2.066;2024-03-07T07:06:23;101082.94;;;10.50;77.34
56042;BME280;48756;41.374;2.066;2024-03-07T07:08:49;101084.59;;;10.72;74.84
56042;BME280;48756;41.374;2.066;2024-03-07T07:11:14;101082.97;;;10.43;75.49
56042;BME280;48756;41.374;2.066;2024-03-07T07:13:40;101080.22;;;10.76;74.47
56042;BME280;48756;41.374;2.066;2024-03-07T07:16:07;101077.44;;;11.08;73.37
56042;BME280;48756;41.374;2.066;2024-03-07T07:18:32;101072.19;;;11.17;74.94
56042;BME280;48756;41.374;2.066;2024-03-07T07:20:58;101069.63;;;11.11;74.86
56042;BME280;48756;41.374;2.066;2024-03-07T07:23:23;101068.56;;;11.31;73.71
56042;BME280;48756;41.374;2.066;2024-03-07T07:25:48;101076.31;;;11.44;72.39
56042;BME280;48756;41.374;2.066;2024-03-07T07:28:14;101069.34;;;11.46;71.84
56042;BME280;48756;41.374;2.066;2024-03-07T07:30:40;101071.22;;;11.27;73.05
56042;BME280;48756;41.374;2.066;2024-03-07T07:33:05;101074.69;;;11.33;70.18
56042;BME280;48756;41.374;2.066;2024-03-07T07:35:31;101071.94;;;11.49;70.81
56042;BME280;48756;41.374;2.066;2024-03-07T07:37:56;101076.34;;;11.41;70.58
56042;BME280;48756;41.374;2.066;2024-03-07T07:40:22;101075.31;;;11.61;70.58
56042;BME280;48756;41.374;2.066;2024-03-07T07:42:48;101078.91;;;11.45;68.69
56042;BME280;48756;41.374;2.066;2024-03-07T07:45:15;101073.72;;;11.44;68.89
56042;BME280;48756;41.374;2.066;2024-03-07T07:47:44;101076.91;;;11.82;68.09
56042;BME280;48756;41.374;2.066;2024-03-07T07:50:10;101074.72;;;12.27;66.56
56042;BME280;48756;41.374;2.066;2024-03-07T07:52:45;101080.50;;;11.64;66.99
56042;BME280;48756;41.374;2.066;2024-03-07T07:55:13;101082.19;;;11.70;66.35
56042;BME280;48756;41.374;2.066;2024-03-07T07:57:47;101086.09;;;11.16;69.41
56042;BME280;48756;41.374;2.066;2024-03-07T08:00:14;101084.16;;;11.44;68.97
56042;BME280;48756;41.374;2.066;2024-03-07T08:03:00;101074.34;;;11.73;66.70
56042;BME280;48756;41.374;2.066;2024-03-07T08:05:31;101084.69;;;11.87;65.90
56042;BME280;48756;41.374;2.066;2024-03-07T08:08:01;101088.09;;;12.00;66.19
56042;BME280;48756;41.374;2.066;2024-03-07T08:10:31;101088.16;;;11.90;65.84
56042;BME280;48756;41.374;2.066;2024-03-07T08:12:57;101075.66;;;12.23;65.36
56042;BME280;48756;41.374;2.066;2024-03-07T08:15:22;101081.56;;;12.37;64.69
56042;BME280;48756;41.374;2.066;2024-03-07T08:17:48;101076.06;;;12.62;64.44
56042;BME280;48756;41.374;2.066;2024-03-07T08:20:15;101080.47;;;12.58;63.27
56042;BME280;48756;41.374;2.066;2024-03-07T08:22:40;101079.28;;;12.82;63.45
56042;BME280;48756;41.374;2.066;2024-03-07T08:25:07;101078.88;;;12.45;62.64
56042;BME280;48756;41.374;2.066;2024-03-07T08:27:36;101080.22;;;12.03;64.98
56042;BME280;48756;41.374;2.066;2024-03-07T08:30:02;101076.38;;;12.36;64.82
56042;BME280;48756;41.374;2.066;2024-03-07T08:32:28;101074.75;;;12.96;61.91
56042;BME280;48756;41.374;2.066;2024-03-07T08:34:53;101069.28;;;13.11;63.57
56042;BME280;48756;41.374;2.066;2024-03-07T08:37:19;101059.19;;;13.47;60.25
56042;BME280;48756;41.374;2.066;2024-03-07T08:39:49;101066.81;;;13.01;60.67
56042;BME280;48756;41.374;2.066;2024-03-07T08:42:17;101065.09;;;13.00;61.90
56042;BME280;48756;41.374;2.066;2024-03-07T08:44:42;101061.94;;;13.39;60.64
56042;BME280;48756;41.374;2.066;2024-03-07T08:47:08;101054.88;;;13.43;59.37
56042;BME280;48756;41.374;2.066;2024-03-07T08:49:35;101048.88;;;13.38;59.02
56042;BME280;48756;41.374;2.066;2024-03-07T08:52:00;101055.75;;;12.82;63.06
56042;BME280;48756;41.374;2.066;2024-03-07T08:54:26;101054.28;;;13.26;61.29
56042;BME280;48756;41.374;2.066;2024-03-07T08:56:51;101052.94;;;14.05;57.72
56042;BME280;48756;41.374;2.066;2024-03-07T08:59:17;101049.06;;;13.76;60.04
56042;BME280;48756;41.374;2.066;2024-03-07T09:01:43;101045.75;;;14.15;58.03
56042;BME280;48756;41.374;2.066;2024-03-07T09:04:08;101044.03;;;14.58;56.29
56042;BME280;48756;41.374;2.066;2024-03-07T09:06:34;101041.06;;;14.75;56.19
56042;BME280;48756;41.374;2.066;2024-03-07T09:08:59;101029.53;;;14.82;55.39
56042;BME280;48756;41.374;2.066;2024-03-07T09:11:25;101022.06;;;15.02;54.89
56042;BME280;48756;41.374;2.066;2024-03-07T09:13:50;101020.97;;;15.48;55.04
56042;BME280;48756;41.374;2.066;2024-03-07T09:16:15;101024.97;;;15.65;54.23
56042;BME280;48756;41.374;2.066;2024-03-07T09:18:40;101016.84;;;15.74;54.09
56042;BME280;48756;41.374;2.066;2024-03-07T09:21:06;101010.78;;;16.35;51.88
56042;BME280;48756;41.374;2.066;2024-03-07T09:23:31;101003.56;;;16.71;52.21
56042;BME280;48756;41.374;2.066;2024-03-07T09:25:56;101003.75;;;15.72;53.39
56042;BME280;48756;41.374;2.066;2024-03-07T09:28:28;100996.97;;;15.64;55.04
56042;BME280;48756;41.374;2.066;2024-03-07T09:30:53;101001.84;;;16.41;55.09
56042;BME280;48756;41.374;2.066;2024-03-07T09:33:20;101001.50;;;16.51;56.28
56042;BME280;48756;41.374;2.066;2024-03-07T09:35:46;101003.41;;;17.05;55.78
56042;BME280;48756;41.374;2.066;2024-03-07T09:38:14;101003.53;;;16.73;56.16
56042;BME280;48756;41.374;2.066;2024-03-07T09:40:39;100994.97;;;17.22;54.16
56042;BME280;48756;41.374;2.066;2024-03-07T09:43:06;100997.00;;;16.86;54.89
56042;BME280;48756;41.374;2.066;2024-03-07T09:45:34;100986.41;;;16.88;55.06
56042;BME280;48756;41.374;2.066;2024-03-07T09:48:00;100993.94;;;16.41;55.89
56042;BME280;48756;41.374;2.066;2024-03-07T09:50:26;100992.28;;;16.38;55.80
56042;BME280;48756;41.374;2.066;2024-03-07T09:52:57;100987.28;;;16.88;57.04
56042;BME280;48756;41.374;2.066;2024-03-07T09:55:23;100988.75;;;17.25;59.91
56042;BME280;48756;41.374;2.066;2024-03-07T09:57:49;100982.25;;;17.08;56.07
56042;BME280;48756;41.374;2.066;2024-03-07T10:00:18;100979.81;;;17.02;57.11
56042;BME280;48756;41.374;2.066;2024-03-07T10:02:53;100982.31;;;17.58;55.27
56042;BME280;48756;41.374;2.066;2024-03-07T10:05:19;100976.06;;;18.35;54.33
56042;BME280;48756;41.374;2.066;2024-03-07T10:07:45;100983.50;;;18.24;54.56
56042;BME280;48756;41.374;2.066;2024-03-07T10:10:10;100980.91;;;17.99;57.30
56042;BME280;48756;41.374;2.066;2024-03-07T10:12:39;100967.53;;;18.51;55.51
56042;BME280;48756;41.374;2.066;2024-03-07T10:15:07;100970.75;;;17.62;58.61
56042;BME280;48756;41.374;2.066;2024-03-07T10:17:40;100972.78;;;17.29;60.51
56042;BME280;48756;41.374;2.066;2024-03-07T10:20:06;100973.84;;;16.96;61.79
56042;BME280;48756;41.374;2.066;2024-03-07T10:22:35;100966.16;;;16.90;61.21
56042;BME280;48756;41.374;2.066;2024-03-07T10:27:37;100954.44;;;17.26;61.84
56042;BME280;48756;41.374;2.066;2024-03-07T10:30:05;100954.34;;;17.54;59.32
56042;BME280;48756;41.374;2.066;2024-03-07T10:32:36;100952.41;;;18.09;57.75
56042;BME280;48756;41.374;2.066;2024-03-07T10:35:02;100944.50;;;18.56;56.13
56042;BME280;48756;41.374;2.066;2024-03-07T10:37:28;100936.13;;;17.98;56.71
56042;BME280;48756;41.374;2.066;2024-03-07T10:39:54;100947.84;;;17.64;57.87
56042;BME280;48756;41.374;2.066;2024-03-07T10:42:20;100940.78;;;18.38;55.34
56042;BME280;48756;41.374;2.066;2024-03-07T10:44:50;100931.16;;;18.59;55.84
56042;BME280;48756;41.374;2.066;2024-03-07T10:47:19;100925.56;;;18.68;55.81
56042;BME280;48756;41.374;2.066;2024-03-07T10:49:48;100933.00;;;18.35;56.98
56042;BME280;48756;41.374;2.066;2024-03-07T10:52:23;100930.81;;;18.23;56.10
56042;BME280;48756;41.374;2.066;2024-03-07T10:54:56;100938.78;;;17.98;59.09
56042;BME280;48756;41.374;2.066;2024-03-07T11:00:00;100929.00;;;17.77;61.76
56042;BME280;48756;41.374;2.066;2024-03-07T11:02:43;100929.91;;;17.75;61.29
56042;BME280;48756;41.374;2.066;2024-03-07T11:05:11;100917.06;;;17.66;62.52
56042;BME280;48756;41.374;2.066;2024-03-07T11:07:38;100926.19;;;17.56;63.48
56042;BME280;48756;41.374;2.066;2024-03-07T11:10:04;100919.13;;;17.32;64.26
56042;BME280;48756;41.374;2.066;2024-03-07T11:12:36;100919.09;;;17.83;61.01
56042;BME280;48756;41.374;2.066;2024-03-07T11:15:05;100922.13;;;17.72;61.13
56042;BME280;48756;41.374;2.066;2024-03-07T11:17:31;100915.41;;;17.62;61.54
56042;BME280;48756;41.374;2.066;2024-03-07T11:20:19;100908.97;;;17.96;59.83
56042;BME280;48756;41.374;2.066;2024-03-07T11:22:47;100906.66;;;18.33;57.41
56042;BME280;48756;41.374;2.066;2024-03-07T11:25:16;100897.78;;;18.58;57.83
56042;BME280;48756;41.374;2.066;2024-03-07T11:27:50;100884.19;;;18.45;57.86
56042;BME280;48756;41.374;2.066;2024-03-07T11:30:16;100894.22;;;18.59;57.24
56042;BME280;48756;41.374;2.066;2024-03-07T11:32:42;100890.00;;;18.31;57.33
56042;BME280;48756;41.374;2.066;2024-03-07T11:35:11;100874.22;;;18.75;57.01
56042;BME280;48756;41.374;2.066;2024-03-07T11:37:42;100873.34;;;18.53;55.35
56042;BME280;48756;41.374;2.066;2024-03-07T11:42:46;100863.38;;;19.44;53.40
56042;BME280;48756;41.374;2.066;2024-03-07T11:45:13;100865.16;;;19.64;52.33
56042;BME280;48756;41.374;2.066;2024-03-07T11:47:50;100850.84;;;19.69;52.80
56042;BME280;48756;41.374;2.066;2024-03-07T11:50:15;100838.47;;;20.07;53.20
56042;BME280;48756;41.374;2.066;2024-03-07T11:52:45;100840.91;;;19.74;52.59
56042;BME280;48756;41.374;2.066;2024-03-07T11:55:11;100839.06;;;19.36;53.12
56042;BME280;48756;41.374;2.066;2024-03-07T11:57:36;100833.47;;;20.01;52.47
56042;BME280;48756;41.374;2.066;2024-03-07T12:00:03;100823.25;;;19.75;52.44
56042;BME280;48756;41.374;2.066;2024-03-07T12:02:38;100817.56;;;19.64;51.70
56042;BME280;48756;41.374;2.066;2024-03-07T12:05:05;100805.38;;;20.35;51.53
56042;BME280;48756;41.374;2.066;2024-03-07T12:07:31;100814.66;;;19.31;53.62
56042;BME280;48756;41.374;2.066;2024-03-07T12:09:59;100804.66;;;19.37;53.08
56042;BME280;48756;41.374;2.066;2024-03-07T12:12:28;100806.31;;;20.16;52.01
56042;BME280;48756;41.374;2.066;2024-03-07T12:14:54;100798.53;;;19.95;50.91
56042;BME280;48756;41.374;2.066;2024-03-07T12:17:20;100800.19;;;20.69;49.40
56042;BME280;48756;41.374;2.066;2024-03-07T12:19:46;100787.94;;;19.37;50.58
56042;BME280;48756;41.374;2.066;2024-03-07T12:22:12;100787.25;;;18.92;51.75
56042;BME280;48756;41.374;2.066;2024-03-07T12:24:40;100785.06;;;19.62;50.69
56042;BME280;48756;41.374;2.066;2024-03-07T12:29:31;100777.88;;;20.56;50.29
56042;BME280;48756;41.374;2.066;2024-03-07T12:31:58;100781.88;;;20.65;48.75
56042;BME280;48756;41.374;2.066;2024-03-07T12:34:24;100776.22;;;20.00;47.67
56042;BME280;48756;41.374;2.066;2024-03-07T12:36:52;100765.69;;;20.17;47.63
56042;BME280;48756;41.374;2.066;2024-03-07T12:39:23;100767.63;;;20.67;47.19
56042;BME280;48756;41.374;2.066;2024-03-07T12:41:56;100759.91;;;20.80;48.49
56042;BME280;48756;41.374;2.066;2024-03-07T12:44:22;100747.25;;;19.97;45.49
56042;BME280;48756;41.374;2.066;2024-03-07T12:46:53;100745.03;;;19.88;45.23
56042;BME280;48756;41.374;2.066;2024-03-07T12:49:22;100746.28;;;20.53;47.35
56042;BME280;48756;41.374;2.066;2024-03-07T12:51:52;100741.22;;;20.66;45.55
56042;BME280;48756;41.374;2.066;2024-03-07T12:54:19;100739.13;;;20.55;47.80
56042;BME280;48756;41.374;2.066;2024-03-07T12:56:44;100735.09;;;20.29;49.12
56042;BME280;48756;41.374;2.066;2024-03-07T12:59:09;100730.66;;;20.66;48.69
56042;BME280;48756;41.374;2.066;2024-03-07T13:01:35;100729.78;;;20.65;45.46